sensor_id;sensor_type;location;lat;lon;timestamp;pressure;altitude;pressure_sealevel;temperature
68939;BMP180;59064;45.294;11.816;2023-07-08T00:00:50;101982.40;;;20.30
68939;BMP180;59064;45.294;11.816;2023-07-08T00:03:17;101975.00;;;20.30
68939;BMP180;59064;45.294;11.816;2023-07-08T00:05:43;101972.80;;;20.24
68939;BMP180;59064;45.294;11.816;2023-07-08T00:08:18;101971.20;;;20.20
68939;BMP180;59064;45.294;11.816;2023-07-08T00:10:44;101969.40;;;20.20
68939;BMP180;59064;45.294;11.816;2023-07-08T00:13:10;101972.20;;;20.20
68939;BMP180;59064;45.294;11.816;2023-07-08T00:15:37;101970.60;;;20.20
68939;BMP180;59064;45.294;11.816;2023-07-08T00:18:16;101973.20;;;20.16
68939;BMP180;59064;45.294;11.816;2023-07-08T00:20:46;101977.60;;;20.10
68939;BMP180;59064;45.294;11.816;2023-07-08T00:23:12;101977.00;;;20.04
68939;BMP180;59064;45.294;11.816;2023-07-08T00:25:38;101972.40;;;20.00
68939;BMP180;59064;45.294;11.816;2023-07-08T00:28:22;101973.00;;;20.00
68939;BMP180;59064;45.294;11.816;2023-07-08T00:30:48;101971.20;;;20.00
68939;BMP180;59064;45.294;11.816;2023-07-08T00:33:14;101969.00;;;20.00
68939;BMP180;59064;45.294;11.816;2023-07-08T00:35:42;101974.40;;;20.00
68939;BMP180;59064;45.294;11.816;2023-07-08T00:38:17;101976.80;;;20.00
68939;BMP180;59064;45.294;11.816;2023-07-08T00:40:53;101974.80;;;20.00
68939;BMP180;59064;45.294;11.816;2023-07-08T00:43:42;101975.60;;;20.00
68939;BMP180;59064;45.294;11.816;2023-07-08T00:51:32;101968.40;;;20.00
68939;BMP180;59064;45.294;11.816;2023-07-08T00:53:58;101963.20;;;20.00
68939;BMP180;59064;45.294;11.816;2023-07-08T00:56:33;101955.00;;;20.00
68939;BMP180;59064;45.294;11.816;2023-07-08T00:59:09;101949.20;;;19.98
68939;BMP180;59064;45.294;11.816;2023-07-08T01:01:42;101946.80;;;20.00
68939;BMP180;59064;45.294;11.816;2023-07-08T01:04:28;101944.40;;;20.00
68939;BMP180;59064;45.294;11.816;2023-07-08T01:06:57;101948.40;;;20.00
68939;BMP180;59064;45.294;11.816;2023-07-08T01:09:33;101950.60;;;19.96
68939;BMP180;59064;45.294;11.816;2023-07-08T01:12:04;101943.80;;;19.90
68939;BMP180;59064;45.294;11.816;2023-07-08T01:14:34;101942.40;;;19.80
68939;BMP180;59064;45.294;11.816;2023-07-08T01:17:00;101940.60;;;19.70
68939;BMP180;59064;45.294;11.816;2023-07-08T01:19:28;101942.80;;;19.60
68939;BMP180;59064;45.294;11.816;2023-07-08T01:22:05;101941.40;;;19.52
68939;BMP180;59064;45.294;11.816;2023-07-08T01:24:35;101940.00;;;19.50
68939;BMP180;59064;45.294;11.816;2023-07-08T01:27:04;101938.60;;;19.40
68939;BMP180;59064;45.294;11.816;2023-07-08T01:29:30;101933.80;;;19.30
68939;BMP180;59064;45.294;11.816;2023-07-08T01:31:57;101929.60;;;19.24
68939;BMP180;59064;45.294;11.816;2023-07-08T01:34:24;101923.80;;;19.20
68939;BMP180;59064;45.294;11.816;2023-07-08T01:36:53;101922.00;;;19.10
68939;BMP180;59064;45.294;11.816;2023-07-08T01:39:23;101926.20;;;19.02
68939;BMP180;59064;45.294;11.816;2023-07-08T01:41:49;101931.80;;;19.00
68939;BMP180;59064;45.294;11.816;2023-07-08T01:44:30;101929.00;;;19.00
68939;BMP180;59064;45.294;11.816;2023-07-08T01:49:28;101934.20;;;18.90
68939;BMP180;59064;45.294;11.816;2023-07-08T01:51:55;101937.20;;;18.90
68939;BMP180;59064;45.294;11.816;2023-07-08T01:54:20;101947.20;;;18.80
68939;BMP180;59064;45.294;11.816;2023-07-08T01:56:46;101940.80;;;18.76
68939;BMP180;59064;45.294;11.816;2023-07-08T01:59:12;101945.80;;;18.70
68939;BMP180;59064;45.294;11.816;2023-07-08T02:01:37;101952.60;;;18.60
68939;BMP180;59064;45.294;11.816;2023-07-08T02:04:03;101961.40;;;18.60
68939;BMP180;59064;45.294;11.816;2023-07-08T02:06:28;101959.00;;;18.60
68939;BMP180;59064;45.294;11.816;2023-07-08T02:08:54;101955.20;;;18.60
68939;BMP180;59064;45.294;11.816;2023-07-08T02:11:23;101956.20;;;18.50
68939;BMP180;59064;45.294;11.816;2023-07-08T02:13:49;101956.80;;;18.50
68939;BMP180;59064;45.294;11.816;2023-07-08T02:16:14;101947.80;;;18.48
68939;BMP180;59064;45.294;11.816;2023-07-08T02:18:40;101943.00;;;18.40
68939;BMP180;59064;45.294;11.816;2023-07-08T02:21:05;101939.40;;;18.40
68939;BMP180;59064;45.294;11.816;2023-07-08T02:23:31;101928.40;;;18.40
68939;BMP180;59064;45.294;11.816;2023-07-08T02:25:57;101921.20;;;18.48
68939;BMP180;59064;45.294;11.816;2023-07-08T02:28:23;101922.40;;;18.50
68939;BMP180;59064;45.294;11.816;2023-07-08T02:30:49;101922.00;;;18.60
68939;BMP180;59064;45.294;11.816;2023-07-08T02:33:14;101915.00;;;18.66
68939;BMP180;59064;45.294;11.816;2023-07-08T02:35:43;101917.60;;;18.70
68939;BMP180;59064;45.294;11.816;2023-07-08T02:38:10;101925.60;;;18.70
68939;BMP180;59064;45.294;11.816;2023-07-08T02:40:35;101922.80;;;18.72
68939;BMP180;59064;45.294;11.816;2023-07-08T02:43:01;101923.60;;;18.80
68939;BMP180;59064;45.294;11.816;2023-07-08T02:45:26;101921.60;;;18.80
68939;BMP180;59064;45.294;11.816;2023-07-08T02:47:52;101917.20;;;18.70
68939;BMP180;59064;45.294;11.816;2023-07-08T02:50:17;101910.00;;;18.68
68939;BMP180;59064;45.294;11.816;2023-07-08T02:52:44;101905.00;;;18.60
68939;BMP180;59064;45.294;11.816;2023-07-08T02:55:09;101907.20;;;18.60
68939;BMP180;59064;45.294;11.816;2023-07-08T02:57:35;101905.60;;;18.60
68939;BMP180;59064;45.294;11.816;2023-07-08T03:00:01;101907.80;;;18.60
68939;BMP180;59064;45.294;11.816;2023-07-08T03:02:29;101915.80;;;18.70
68939;BMP180;59064;45.294;11.816;2023-07-08T03:05:04;101921.00;;;18.70
68939;BMP180;59064;45.294;11.816;2023-07-08T03:07:30;101930.80;;;18.72
68939;BMP180;59064;45.294;11.816;2023-07-08T03:09:56;101939.20;;;18.70
68939;BMP180;59064;45.294;11.816;2023-07-08T03:12:21;101943.40;;;18.70
68939;BMP180;59064;45.294;11.816;2023-07-08T03:14:47;101942.20;;;18.70
68939;BMP180;59064;45.294;11.816;2023-07-08T03:17:12;101939.60;;;18.60
68939;BMP180;59064;45.294;11.816;2023-07-08T03:19:38;101941.60;;;18.60
68939;BMP180;59064;45.294;11.816;2023-07-08T03:22:03;101939.60;;;18.50
68939;BMP180;59064;45.294;11.816;2023-07-08T03:24:30;101934.60;;;18.48
68939;BMP180;59064;45.294;11.816;2023-07-08T03:26:56;101931.00;;;18.40
68939;BMP180;59064;45.294;11.816;2023-07-08T03:29:22;101925.40;;;18.44
68939;BMP180;59064;45.294;11.816;2023-07-08T03:31:48;101929.60;;;18.50
68939;BMP180;59064;45.294;11.816;2023-07-08T03:34:15;101927.60;;;18.60
68939;BMP180;59064;45.294;11.816;2023-07-08T03:36:50;101920.20;;;18.70
68939;BMP180;59064;45.294;11.816;2023-07-08T03:39:21;101913.00;;;18.70
68939;BMP180;59064;45.294;11.816;2023-07-08T03:41:49;101905.40;;;18.80
68939;BMP180;59064;45.294;11.816;2023-07-08T03:44:14;101905.00;;;18.80
68939;BMP180;59064;45.294;11.816;2023-07-08T03:46:45;101900.40;;;18.80
68939;BMP180;59064;45.294;11.816;2023-07-08T03:49:11;101907.20;;;18.80
68939;BMP180;59064;45.294;11.816;2023-07-08T03:51:38;101905.00;;;18.80
68939;BMP180;59064;45.294;11.816;2023-07-08T03:54:05;101908.20;;;18.88
68939;BMP180;59064;45.294;11.816;2023-07-08T03:56:31;101904.40;;;18.90
68939;BMP180;59064;45.294;11.816;2023-07-08T03:58:57;101906.20;;;19.00
68939;BMP180;59064;45.294;11.816;2023-07-08T04:01:24;101901.80;;;19.10
68939;BMP180;59064;45.294;11.816;2023-07-08T04:03:51;101895.20;;;19.20
68939;BMP180;59064;45.294;11.816;2023-07-08T04:06:17;101898.00;;;19.34
68939;BMP180;59064;45.294;11.816;2023-07-08T04:08:42;101906.60;;;19.50
68939;BMP180;59064;45.294;11.816;2023-07-08T04:11:12;101908.00;;;19.60
68939;BMP180;59064;45.294;11.816;2023-07-08T04:13:38;101906.20;;;19.70
68939;BMP180;59064;45.294;11.816;2023-07-08T04:16:05;101903.60;;;19.80
68939;BMP180;59064;45.294;11.816;2023-07-08T04:18:31;101902.80;;;19.90
68939;BMP180;59064;45.294;11.816;2023-07-08T04:20:57;101908.20;;;20.00
68939;BMP180;59064;45.294;11.816;2023-07-08T04:23:22;101904.20;;;20.16
68939;BMP180;59064;45.294;11.816;2023-07-08T04:25:49;101900.40;;;20.22
68939;BMP180;59064;45.294;11.816;2023-07-08T04:28:16;101892.80;;;20.40
68939;BMP180;59064;45.294;11.816;2023-07-08T04:30:42;101889.80;;;20.46
68939;BMP180;59064;45.294;11.816;2023-07-08T04:33:09;101883.00;;;20.60
68939;BMP180;59064;45.294;11.816;2023-07-08T04:35:35;101877.60;;;20.70
68939;BMP180;59064;45.294;11.816;2023-07-08T04:38:06;101881.40;;;20.80
68939;BMP180;59064;45.294;11.816;2023-07-08T04:40:37;101883.60;;;20.90
68939;BMP180;59064;45.294;11.816;2023-07-08T04:43:05;101884.80;;;21.00
68939;BMP180;59064;45.294;11.816;2023-07-08T04:45:30;101880.80;;;21.14
68939;BMP180;59064;45.294;11.816;2023-07-08T04:47:56;101887.60;;;21.26
68939;BMP180;59064;45.294;11.816;2023-07-08T04:50:21;101885.60;;;21.34
68939;BMP180;59064;45.294;11.816;2023-07-08T04:52:47;101883.20;;;21.40
68939;BMP180;59064;45.294;11.816;2023-07-08T04:55:13;101882.60;;;21.40
68939;BMP180;59064;45.294;11.816;2023-07-08T04:57:38;101885.80;;;21.50
68939;BMP180;59064;45.294;11.816;2023-07-08T05:00:05;101886.20;;;21.50
68939;BMP180;59064;45.294;11.816;2023-07-08T05:02:33;101893.80;;;21.50
68939;BMP180;59064;45.294;11.816;2023-07-08T05:04:59;101896.40;;;21.56
68939;BMP180;59064;45.294;11.816;2023-07-08T05:07:24;101895.60;;;21.60
68939;BMP180;59064;45.294;11.816;2023-07-08T05:09:50;101894.60;;;21.70
68939;BMP180;59064;45.294;11.816;2023-07-08T05:12:16;101907.00;;;21.76
68939;BMP180;59064;45.294;11.816;2023-07-08T05:14:41;101908.00;;;21.80
68939;BMP180;59064;45.294;11.816;2023-07-08T05:17:08;101900.00;;;21.90
68939;BMP180;59064;45.294;11.816;2023-07-08T05:19:33;101904.40;;;21.90
68939;BMP180;59064;45.294;11.816;2023-07-08T05:21:58;101911.00;;;22.00
68939;BMP180;59064;45.294;11.816;2023-07-08T05:24:24;101900.20;;;22.00
68939;BMP180;59064;45.294;11.816;2023-07-08T05:26:49;101895.80;;;22.00
68939;BMP180;59064;45.294;11.816;2023-07-08T05:29:15;101890.20;;;22.00
68939;BMP180;59064;45.294;11.816;2023-07-08T05:31:40;101884.40;;;21.92
68939;BMP180;59064;45.294;11.816;2023-07-08T05:34:06;101874.20;;;22.00
68939;BMP180;59064;45.294;11.816;2023-07-08T05:36:31;101868.00;;;22.08
68939;BMP180;59064;45.294;11.816;2023-07-08T05:38:57;101877.20;;;22.18
68939;BMP180;59064;45.294;11.816;2023-07-08T05:41:22;101883.80;;;22.30
68939;BMP180;59064;45.294;11.816;2023-07-08T05:43:48;101884.80;;;22.48
68939;BMP180;59064;45.294;11.816;2023-07-08T05:46:13;101889.80;;;22.60
68939;BMP180;59064;45.294;11.816;2023-07-08T05:48:39;101897.80;;;22.78
68939;BMP180;59064;45.294;11.816;2023-07-08T05:51:04;101898.20;;;22.90
68939;BMP180;59064;45.294;11.816;2023-07-08T05:53:30;101902.80;;;23.00
68939;BMP180;59064;45.294;11.816;2023-07-08T05:55:56;101901.20;;;23.10
68939;BMP180;59064;45.294;11.816;2023-07-08T05:58:21;101899.00;;;23.20
68939;BMP180;59064;45.294;11.816;2023-07-08T06:00:47;101899.00;;;23.30
68939;BMP180;59064;45.294;11.816;2023-07-08T06:03:13;101897.00;;;23.48
68939;BMP180;59064;45.294;11.816;2023-07-08T06:05:38;101889.60;;;23.60
68939;BMP180;59064;45.294;11.816;2023-07-08T06:08:05;101889.60;;;23.70
68939;BMP180;59064;45.294;11.816;2023-07-08T06:10:31;101893.40;;;23.80
68939;BMP180;59064;45.294;11.816;2023-07-08T06:12:56;101890.00;;;23.80
68939;BMP180;59064;45.294;11.816;2023-07-08T06:15:22;101893.40;;;24.00
68939;BMP180;59064;45.294;11.816;2023-07-08T06:17:47;101896.40;;;24.10
68939;BMP180;59064;45.294;11.816;2023-07-08T06:20:13;101895.00;;;24.24
68939;BMP180;59064;45.294;11.816;2023-07-08T06:22:38;101893.60;;;24.30
68939;BMP180;59064;45.294;11.816;2023-07-08T06:25:04;101887.20;;;24.40
68939;BMP180;59064;45.294;11.816;2023-07-08T06:27:29;101881.60;;;24.40
68939;BMP180;59064;45.294;11.816;2023-07-08T06:29:56;101874.00;;;24.42
68939;BMP180;59064;45.294;11.816;2023-07-08T06:32:21;101877.00;;;24.50
68939;BMP180;59064;45.294;11.816;2023-07-08T06:34:47;101879.00;;;24.60
68939;BMP180;59064;45.294;11.816;2023-07-08T06:37:12;101882.80;;;24.70
68939;BMP180;59064;45.294;11.816;2023-07-08T06:39:37;101884.80;;;24.80
68939;BMP180;59064;45.294;11.816;2023-07-08T06:42:03;101884.80;;;24.90
68939;BMP180;59064;45.294;11.816;2023-07-08T06:44:29;101893.00;;;25.08
68939;BMP180;59064;45.294;11.816;2023-07-08T06:46:54;101896.00;;;25.30
68939;BMP180;59064;45.294;11.816;2023-07-08T06:49:20;101882.60;;;25.46
68939;BMP180;59064;45.294;11.816;2023-07-08T06:51:45;101881.40;;;25.60
68939;BMP180;59064;45.294;11.816;2023-07-08T06:54:11;101882.20;;;25.64
68939;BMP180;59064;45.294;11.816;2023-07-08T06:56:38;101886.20;;;25.80
68939;BMP180;59064;45.294;11.816;2023-07-08T06:59:04;101883.60;;;26.00
68939;BMP180;59064;45.294;11.816;2023-07-08T07:01:30;101885.00;;;26.10
68939;BMP180;59064;45.294;11.816;2023-07-08T07:03:55;101881.00;;;26.16
68939;BMP180;59064;45.294;11.816;2023-07-08T07:06:21;101885.60;;;26.20
68939;BMP180;59064;45.294;11.816;2023-07-08T07:08:46;101871.80;;;26.20
68939;BMP180;59064;45.294;11.816;2023-07-08T07:11:12;101873.20;;;26.32
68939;BMP180;59064;45.294;11.816;2023-07-08T07:13:37;101866.80;;;26.50
68939;BMP180;59064;45.294;11.816;2023-07-08T07:16:03;101872.00;;;26.80
68939;BMP180;59064;45.294;11.816;2023-07-08T07:18:29;101885.20;;;26.90
68939;BMP180;59064;45.294;11.816;2023-07-08T07:20:54;101879.40;;;27.10
68939;BMP180;59064;45.294;11.816;2023-07-08T07:23:20;101877.40;;;27.28
68939;BMP180;59064;45.294;11.816;2023-07-08T07:25:46;101873.80;;;27.36
68939;BMP180;59064;45.294;11.816;2023-07-08T07:28:16;101870.40;;;27.42
68939;BMP180;59064;45.294;11.816;2023-07-08T07:30:43;101871.40;;;27.68
68939;BMP180;59064;45.294;11.816;2023-07-08T07:33:09;101872.60;;;27.90
68939;BMP180;59064;45.294;11.816;2023-07-08T07:35:35;101874.00;;;28.00
68939;BMP180;59064;45.294;11.816;2023-07-08T07:38:00;101880.20;;;28.10
68939;BMP180;59064;45.294;11.816;2023-07-08T07:40:25;101874.80;;;28.00
68939;BMP180;59064;45.294;11.816;2023-07-08T07:42:51;101885.00;;;27.96
68939;BMP180;59064;45.294;11.816;2023-07-08T07:45:16;101892.40;;;28.10
68939;BMP180;59064;45.294;11.816;2023-07-08T07:47:42;101890.40;;;28.10
68939;BMP180;59064;45.294;11.816;2023-07-08T07:50:09;101887.80;;;28.20
68939;BMP180;59064;45.294;11.816;2023-07-08T07:52:35;101892.60;;;28.42
68939;BMP180;59064;45.294;11.816;2023-07-08T07:55:02;101896.20;;;28.50
68939;BMP180;59064;45.294;11.816;2023-07-08T07:57:27;101896.00;;;28.60
68939;BMP180;59064;45.294;11.816;2023-07-08T07:59:53;101898.60;;;28.60
68939;BMP180;59064;45.294;11.816;2023-07-08T08:02:19;101904.20;;;28.80
68939;BMP180;59064;45.294;11.816;2023-07-08T08:04:44;101904.80;;;29.16
68939;BMP180;59064;45.294;11.816;2023-07-08T08:07:10;101895.40;;;29.30
68939;BMP180;59064;45.294;11.816;2023-07-08T08:09:36;101884.80;;;29.64
68939;BMP180;59064;45.294;11.816;2023-07-08T08:12:03;101875.20;;;29.90
68939;BMP180;59064;45.294;11.816;2023-07-08T08:14:29;101875.60;;;29.90
68939;BMP180;59064;45.294;11.816;2023-07-08T08:16:54;101883.00;;;29.74
68939;BMP180;59064;45.294;11.816;2023-07-08T08:19:20;101885.20;;;29.80
68939;BMP180;59064;45.294;11.816;2023-07-08T08:21:45;101889.40;;;30.00
68939;BMP180;59064;45.294;11.816;2023-07-08T08:24:11;101888.60;;;30.30
68939;BMP180;59064;45.294;11.816;2023-07-08T08:26:36;101892.60;;;30.34
68939;BMP180;59064;45.294;11.816;2023-07-08T08:29:02;101897.00;;;30.50
68939;BMP180;59064;45.294;11.816;2023-07-08T08:31:27;101896.40;;;30.60
68939;BMP180;59064;45.294;11.816;2023-07-08T08:33:53;101903.60;;;30.70
68939;BMP180;59064;45.294;11.816;2023-07-08T08:36:18;101901.20;;;30.80
68939;BMP180;59064;45.294;11.816;2023-07-08T08:38:46;101906.00;;;30.60
68939;BMP180;59064;45.294;11.816;2023-07-08T08:41:17;101911.80;;;30.48
68939;BMP180;59064;45.294;11.816;2023-07-08T08:43:43;101910.00;;;30.30
68939;BMP180;59064;45.294;11.816;2023-07-08T08:51:38;101915.40;;;31.48
68939;BMP180;59064;45.294;11.816;2023-07-08T08:54:03;101914.40;;;31.70
68939;BMP180;59064;45.294;11.816;2023-07-08T08:56:37;101913.00;;;31.90
68939;BMP180;59064;45.294;11.816;2023-07-08T09:01:52;101908.60;;;32.50
68939;BMP180;59064;45.294;11.816;2023-07-08T09:04:31;101906.80;;;32.68
68939;BMP180;59064;45.294;11.816;2023-07-08T09:07:06;101905.00;;;32.70
68939;BMP180;59064;45.294;11.816;2023-07-08T09:09:41;101909.80;;;32.24
68939;BMP180;59064;45.294;11.816;2023-07-08T09:12:14;101913.20;;;32.26
68939;BMP180;59064;45.294;11.816;2023-07-08T09:14:41;101909.20;;;32.30
68939;BMP180;59064;45.294;11.816;2023-07-08T09:17:23;101911.20;;;32.10
68939;BMP180;59064;45.294;11.816;2023-07-08T09:22:42;101919.20;;;32.08
68939;BMP180;59064;45.294;11.816;2023-07-08T09:27:45;101921.00;;;31.70
68939;BMP180;59064;45.294;11.816;2023-07-08T09:30:14;101926.00;;;31.74
68939;BMP180;59064;45.294;11.816;2023-07-08T09:32:40;101931.80;;;32.00
68939;BMP180;59064;45.294;11.816;2023-07-08T09:35:07;101932.40;;;31.90
68939;BMP180;59064;45.294;11.816;2023-07-08T09:37:35;101938.40;;;31.90
68939;BMP180;59064;45.294;11.816;2023-07-08T09:40:10;101939.20;;;31.90
68939;BMP180;59064;45.294;11.816;2023-07-08T09:42:41;101945.80;;;32.06
68939;BMP180;59064;45.294;11.816;2023-07-08T09:45:13;101947.20;;;32.54
68939;BMP180;59064;45.294;11.816;2023-07-08T09:47:39;101939.20;;;32.80
68939;BMP180;59064;45.294;11.816;2023-07-08T09:50:27;101929.00;;;32.90
68939;BMP180;59064;45.294;11.816;2023-07-08T09:52:55;101928.80;;;32.90
68939;BMP180;59064;45.294;11.816;2023-07-08T09:55:30;101928.40;;;32.88
68939;BMP180;59064;45.294;11.816;2023-07-08T09:57:57;101927.00;;;32.90
68939;BMP180;59064;45.294;11.816;2023-07-08T10:00:28;101931.60;;;32.90
68939;BMP180;59064;45.294;11.816;2023-07-08T10:02:57;101934.60;;;32.70
68939;BMP180;59064;45.294;11.816;2023-07-08T10:05:27;101939.20;;;32.60
68939;BMP180;59064;45.294;11.816;2023-07-08T10:07:56;101938.80;;;32.80
68939;BMP180;59064;45.294;11.816;2023-07-08T10:10:32;101943.60;;;32.60
68939;BMP180;59064;45.294;11.816;2023-07-08T10:13:02;101943.00;;;32.70
68939;BMP180;59064;45.294;11.816;2023-07-08T10:15:51;101946.00;;;32.76
68939;BMP180;59064;45.294;11.816;2023-07-08T10:18:24;101943.40;;;33.08
68939;BMP180;59064;45.294;11.816;2023-07-08T10:21:04;101941.20;;;33.20
68939;BMP180;59064;45.294;11.816;2023-07-08T10:26:26;101943.40;;;33.30
68939;BMP180;59064;45.294;11.816;2023-07-08T10:31:48;101941.40;;;33.48
68939;BMP180;59064;45.294;11.816;2023-07-08T10:40:07;101933.20;;;33.30
68939;BMP180;59064;45.294;11.816;2023-07-08T10:45:25;101926.40;;;33.40
68939;BMP180;59064;45.294;11.816;2023-07-08T10:53:30;101921.80;;;33.30
68939;BMP180;59064;45.294;11.816;2023-07-08T11:06:53;101928.20;;;33.70
68939;BMP180;59064;45.294;11.816;2023-07-08T11:09:33;101922.20;;;33.90
68939;BMP180;59064;45.294;11.816;2023-07-08T11:12:19;101919.40;;;33.60
68939;BMP180;59064;45.294;11.816;2023-07-08T11:14:57;101911.20;;;33.50
68939;BMP180;59064;45.294;11.816;2023-07-08T11:17:31;101910.40;;;33.64
68939;BMP180;59064;45.294;11.816;2023-07-08T11:19:59;101908.20;;;33.60
68939;BMP180;59064;45.294;11.816;2023-07-08T11:22:28;101906.20;;;33.38
68939;BMP180;59064;45.294;11.816;2023-07-08T11:24:55;101901.40;;;33.10
68939;BMP180;59064;45.294;11.816;2023-07-08T11:27:29;101902.80;;;33.20
68939;BMP180;59064;45.294;11.816;2023-07-08T11:30:06;101897.20;;;33.38
68939;BMP180;59064;45.294;11.816;2023-07-08T11:32:39;101893.80;;;33.80
68939;BMP180;59064;45.294;11.816;2023-07-08T11:35:07;101897.60;;;34.18
68939;BMP180;59064;45.294;11.816;2023-07-08T11:37:37;101895.40;;;34.20
68939;BMP180;59064;45.294;11.816;2023-07-08T11:40:15;101890.80;;;34.30
68939;BMP180;59064;45.294;11.816;2023-07-08T11:42:44;101890.20;;;34.38
68939;BMP180;59064;45.294;11.816;2023-07-08T11:47:48;101887.00;;;34.28
68939;BMP180;59064;45.294;11.816;2023-07-08T11:52:59;101882.20;;;34.70
68939;BMP180;59064;45.294;11.816;2023-07-08T11:55:34;101872.60;;;34.90
68939;BMP180;59064;45.294;11.816;2023-07-08T11:58:00;101870.40;;;34.80
68939;BMP180;59064;45.294;11.816;2023-07-08T12:00:30;101870.20;;;34.76
68939;BMP180;59064;45.294;11.816;2023-07-08T12:03:18;101870.00;;;34.92
68939;BMP180;59064;45.294;11.816;2023-07-08T12:05:44;101857.80;;;35.10
68939;BMP180;59064;45.294;11.816;2023-07-08T12:08:13;101856.60;;;35.20
68939;BMP180;59064;45.294;11.816;2023-07-08T12:10:42;101851.00;;;35.34
68939;BMP180;59064;45.294;11.816;2023-07-08T12:13:14;101850.80;;;35.30
68939;BMP180;59064;45.294;11.816;2023-07-08T12:15:41;101847.80;;;35.20
68939;BMP180;59064;45.294;11.816;2023-07-08T12:20:38;101844.40;;;34.70
68939;BMP180;59064;45.294;11.816;2023-07-08T12:23:22;101845.80;;;34.40
68939;BMP180;59064;45.294;11.816;2023-07-08T12:25:48;101838.20;;;34.30
68939;BMP180;59064;45.294;11.816;2023-07-08T12:28:15;101841.20;;;34.40
68939;BMP180;59064;45.294;11.816;2023-07-08T12:30:42;101839.00;;;34.40
68939;BMP180;59064;45.294;11.816;2023-07-08T12:33:21;101838.60;;;34.26
68939;BMP180;59064;45.294;11.816;2023-07-08T12:35:50;101836.00;;;34.20
68939;BMP180;59064;45.294;11.816;2023-07-08T12:38:30;101832.20;;;34.60
68939;BMP180;59064;45.294;11.816;2023-07-08T12:40:58;101827.80;;;34.50
68939;BMP180;59064;45.294;11.816;2023-07-08T12:43:25;101827.60;;;34.50
68939;BMP180;59064;45.294;11.816;2023-07-08T12:45:50;101823.40;;;34.30
68939;BMP180;59064;45.294;11.816;2023-07-08T12:48:16;101826.40;;;34.48
68939;BMP180;59064;45.294;11.816;2023-07-08T12:50:41;101821.20;;;34.80
68939;BMP180;59064;45.294;11.816;2023-07-08T12:53:07;101819.80;;;34.80
68939;BMP180;59064;45.294;11.816;2023-07-08T12:55:42;101820.00;;;34.92
68939;BMP180;59064;45.294;11.816;2023-07-08T12:58:22;101820.20;;;35.18
68939;BMP180;59064;45.294;11.816;2023-07-08T13:00:50;101822.20;;;35.48
68939;BMP180;59064;45.294;11.816;2023-07-08T13:03:22;101817.80;;;35.50
68939;BMP180;59064;45.294;11.816;2023-07-08T13:05:50;101817.20;;;35.86
68939;BMP180;59064;45.294;11.816;2023-07-08T13:08:21;101815.00;;;36.20
68939;BMP180;59064;45.294;11.816;2023-07-08T13:10:48;101816.80;;;36.56
68939;BMP180;59064;45.294;11.816;2023-07-08T13:13:21;101818.20;;;37.00
68939;BMP180;59064;45.294;11.816;2023-07-08T13:15:47;101813.00;;;37.10
68939;BMP180;59064;45.294;11.816;2023-07-08T13:18:18;101814.20;;;36.60
68939;BMP180;59064;45.294;11.816;2023-07-08T13:20:52;101812.40;;;36.40
68939;BMP180;59064;45.294;11.816;2023-07-08T13:23:19;101808.80;;;36.50
68939;BMP180;59064;45.294;11.816;2023-07-08T13:25:49;101806.80;;;36.44
68939;BMP180;59064;45.294;11.816;2023-07-08T13:30:59;101809.00;;;36.18
68939;BMP180;59064;45.294;11.816;2023-07-08T13:33:30;101811.60;;;35.60
68939;BMP180;59064;45.294;11.816;2023-07-08T13:35:56;101805.00;;;35.70
68939;BMP180;59064;45.294;11.816;2023-07-08T13:38:24;101806.60;;;35.80
68939;BMP180;59064;45.294;11.816;2023-07-08T13:40:59;101804.20;;;36.30
68939;BMP180;59064;45.294;11.816;2023-07-08T13:43:27;101803.80;;;36.96
68939;BMP180;59064;45.294;11.816;2023-07-08T13:45:53;101804.80;;;37.20
68939;BMP180;59064;45.294;11.816;2023-07-08T13:48:41;101807.60;;;37.34
68939;BMP180;59064;45.294;11.816;2023-07-08T13:51:17;101811.20;;;37.10
68939;BMP180;59064;45.294;11.816;2023-07-08T13:53:53;101806.80;;;37.40
68939;BMP180;59064;45.294;11.816;2023-07-08T13:56:27;101804.60;;;37.40
68939;BMP180;59064;45.294;11.816;2023-07-08T13:59:01;101799.00;;;37.44
68939;BMP180;59064;45.294;11.816;2023-07-08T14:01:29;101798.20;;;37.50
68939;BMP180;59064;45.294;11.816;2023-07-08T14:03:55;101792.00;;;37.80
68939;BMP180;59064;45.294;11.816;2023-07-08T14:06:24;101789.80;;;38.10
68939;BMP180;59064;45.294;11.816;2023-07-08T14:08:54;101787.40;;;38.20
68939;BMP180;59064;45.294;11.816;2023-07-08T14:11:20;101786.20;;;38.28
68939;BMP180;59064;45.294;11.816;2023-07-08T14:13:45;101788.00;;;38.20
68939;BMP180;59064;45.294;11.816;2023-07-08T14:16:33;101792.00;;;38.24
68939;BMP180;59064;45.294;11.816;2023-07-08T14:19:02;101784.40;;;38.32
68939;BMP180;59064;45.294;11.816;2023-07-08T14:21:32;101785.60;;;38.80
68939;BMP180;59064;45.294;11.816;2023-07-08T14:23:58;101784.80;;;38.90
68939;BMP180;59064;45.294;11.816;2023-07-08T14:26:24;101782.80;;;38.88
68939;BMP180;59064;45.294;11.816;2023-07-08T14:28:49;101783.00;;;38.84
68939;BMP180;59064;45.294;11.816;2023-07-08T14:31:20;101780.20;;;39.30
68939;BMP180;59064;45.294;11.816;2023-07-08T14:33:46;101778.00;;;39.30
68939;BMP180;59064;45.294;11.816;2023-07-08T14:36:12;101779.20;;;39.30
68939;BMP180;59064;45.294;11.816;2023-07-08T14:38:39;101783.20;;;39.72
68939;BMP180;59064;45.294;11.816;2023-07-08T14:41:05;101780.00;;;40.20
68939;BMP180;59064;45.294;11.816;2023-07-08T14:43:31;101773.40;;;40.30
68939;BMP180;59064;45.294;11.816;2023-07-08T14:46:00;101777.60;;;40.20
68939;BMP180;59064;45.294;11.816;2023-07-08T14:48:28;101769.60;;;40.00
68939;BMP180;59064;45.294;11.816;2023-07-08T14:50:54;101764.00;;;39.90
68939;BMP180;59064;45.294;11.816;2023-07-08T14:53:19;101769.00;;;39.68